createdAt,value
2023-03-08T00:02:30.779Z,67.23
2023-03-08T00:07:38.768Z,67.12
2023-03-08T00:12:46.046Z,67.15
2023-03-08T00:17:53.608Z,67.23
2023-03-08T00:23:01.082Z,67.59
2023-03-08T00:28:08.828Z,67.63
2023-03-08T00:33:16.291Z,67.61
2023-03-08T00:38:24.128Z,67.93
2023-03-08T00:43:31.832Z,67.83
2023-03-08T00:48:39.083Z,67.97
2023-03-08T00:53:46.639Z,68.04
2023-03-08T00:58:54.413Z,68.54
2023-03-08T01:04:02.533Z,68.48
2023-03-08T01:09:10.612Z,68.87
2023-03-08T01:14:18.181Z,69.15
2023-03-08T01:19:25.489Z,69.46
2023-03-08T01:28:51.123Z,69.40
2023-03-08T01:33:57.116Z,69.31
2023-03-08T01:39:02.058Z,69.47
2023-03-08T01:44:07.356Z,69.25
2023-03-08T01:49:14.314Z,69.36
2023-03-08T01:54:22.872Z,69.35
2023-03-08T01:59:28.031Z,69.50
2023-03-08T02:04:32.654Z,69.44
2023-03-08T02:09:37.270Z,69.17
2023-03-08T02:14:43.595Z,68.88
2023-03-08T02:19:53.019Z,68.62
2023-03-08T02:24:57.193Z,68.29
2023-03-08T02:30:03.199Z,68.52
2023-03-08T02:35:09.285Z,68.42
2023-03-08T02:40:18.944Z,68.57
2023-03-08T02:45:23.396Z,68.18
2023-03-08T02:50:29.031Z,68.15
2023-03-08T02:55:35.851Z,68.14
2023-03-08T03:00:41.689Z,68.18
2023-03-08T03:05:46.359Z,68.00
2023-03-08T03:10:50.775Z,67.95
2023-03-08T03:15:55.263Z,67.93
2023-03-08T03:21:05.279Z,67.72
2023-03-08T03:26:11.658Z,67.67
2023-03-08T03:31:18.323Z,67.43
2023-03-08T03:36:23.697Z,67.35
2023-03-08T03:41:28.070Z,67.47
2023-03-08T03:46:32.158Z,67.31
2023-03-08T03:51:37.660Z,67.39
2023-03-08T03:56:41.649Z,67.62
2023-03-08T04:01:46.280Z,68.08
2023-03-08T04:06:51.165Z,68.35
2023-03-08T04:11:55.909Z,68.40
2023-03-08T04:17:00.132Z,68.45
2023-03-08T04:22:04.841Z,68.04
2023-03-08T04:27:09.115Z,67.93
2023-03-08T04:32:13.196Z,67.29
2023-03-08T04:37:17.663Z,67.15
2023-03-08T04:42:22.410Z,67.12
2023-03-08T04:47:26.600Z,66.72
2023-03-08T04:52:30.818Z,66.48
2023-03-08T04:57:35.277Z,66.44
2023-03-08T05:02:39.516Z,66.26
2023-03-08T05:07:44.057Z,66.36
2023-03-08T05:12:48.755Z,66.38
2023-03-08T05:17:53.408Z,67.02
2023-03-08T05:22:59.344Z,67.52
2023-03-08T05:28:04.247Z,67.38
2023-03-08T05:33:08.356Z,67.46
2023-03-08T05:48:18.156Z,66.93
2023-03-08T05:53:26.133Z,66.43
2023-03-08T05:58:34.225Z,66.11
2023-03-08T06:03:42.211Z,65.48
2023-03-08T06:08:50.988Z,65.17
2023-03-08T06:13:58.672Z,65.05
2023-03-08T06:19:06.856Z,64.80
2023-03-08T06:24:14.392Z,64.61
2023-03-08T06:29:22.429Z,64.05
2023-03-08T06:34:30.120Z,63.79
2023-03-08T06:39:37.580Z,63.68
2023-03-08T06:44:44.966Z,63.73
2023-03-08T06:49:54.036Z,63.16
2023-03-08T06:55:01.647Z,63.50
2023-03-08T07:00:12.611Z,62.66
2023-03-08T07:05:20.831Z,62.79
2023-03-08T07:10:28.546Z,62.61
2023-03-08T07:15:36.094Z,61.76
2023-03-08T07:20:44.194Z,61.85
2023-03-08T07:25:52.276Z,61.80
2023-03-08T07:30:59.712Z,61.37
2023-03-08T07:36:08.526Z,61.32
2023-03-08T07:41:16.019Z,60.83
2023-03-08T07:46:23.648Z,61.00
2023-03-08T07:51:31.491Z,60.90
2023-03-08T07:56:38.945Z,60.47
2023-03-08T08:01:46.348Z,60.31
2023-03-08T08:08:08.686Z,60.64
2023-03-08T08:13:17.973Z,59.58
2023-03-08T08:18:25.588Z,58.88
2023-03-08T08:23:34.255Z,59.22
2023-03-08T08:28:43.406Z,59.48
2023-03-08T08:33:50.887Z,59.76
2023-03-08T08:38:58.293Z,60.22
2023-03-08T08:44:05.699Z,60.02
2023-03-08T08:49:12.994Z,59.33
2023-03-08T08:54:20.586Z,58.59
2023-03-08T08:59:27.674Z,58.40
2023-03-08T09:04:34.900Z,57.93
2023-03-08T09:15:01.805Z,57.18
2023-03-08T09:20:09.347Z,56.91
2023-03-08T09:25:13.909Z,56.40
2023-03-08T09:30:19.214Z,56.45
2023-03-08T09:35:23.743Z,55.77
2023-03-08T09:40:29.955Z,55.73
2023-03-08T09:45:34.738Z,53.84
2023-03-08T09:50:46.243Z,54.46
2023-03-08T09:55:55.783Z,54.07
2023-03-08T10:01:06.427Z,53.20
2023-03-08T10:06:19.619Z,52.75
2023-03-08T10:11:32.139Z,52.57
2023-03-08T10:16:40.037Z,52.62
2023-03-08T10:21:46.002Z,52.69
2023-03-08T10:26:51.288Z,52.32
2023-03-08T10:31:55.838Z,52.18
2023-03-08T10:37:02.139Z,53.11
2023-03-08T10:42:15.622Z,52.06
2023-03-08T10:47:22.780Z,52.14
2023-03-08T10:52:29.034Z,50.52
2023-03-08T10:57:34.317Z,50.54
2023-03-08T11:02:38.450Z,51.28
2023-03-08T11:07:51.814Z,50.94
2023-03-08T11:18:52.095Z,51.52
2023-03-08T11:24:09.723Z,51.95
2023-03-08T11:29:30.818Z,49.96
2023-03-08T11:34:55.152Z,49.30
2023-03-08T11:40:15.066Z,49.04
2023-03-08T11:45:29.684Z,49.22
2023-03-08T11:50:41.708Z,48.87
2023-03-08T11:56:15.437Z,49.97
2023-03-08T12:01:26.993Z,50.06
2023-03-08T12:06:40.303Z,49.96
2023-03-08T12:11:51.423Z,50.66
2023-03-08T12:17:08.162Z,50.44
2023-03-08T12:22:40.207Z,49.86
2023-03-08T12:27:52.746Z,51.01
2023-03-08T12:33:04.092Z,51.03
2023-03-08T12:38:32.043Z,50.52
2023-03-08T12:43:42.528Z,50.30
2023-03-08T12:48:53.989Z,50.73
2023-03-08T12:54:04.468Z,49.77
2023-03-08T12:59:39.148Z,50.56
2023-03-08T13:04:47.664Z,51.13
2023-03-08T13:10:01.173Z,48.71
2023-03-08T13:15:29.066Z,48.99
2023-03-08T13:20:57.973Z,49.21
2023-03-08T13:26:26.886Z,48.86
2023-03-08T13:31:35.319Z,48.12
2023-03-08T13:36:49.942Z,48.44
2023-03-08T13:42:13.500Z,48.57
2023-03-08T13:47:27.044Z,48.94
2023-03-08T13:52:39.504Z,47.76
2023-03-08T13:57:54.330Z,47.32
2023-03-08T14:03:03.995Z,48.00
2023-03-08T14:08:22.556Z,47.61
2023-03-08T14:13:32.679Z,48.70
2023-03-08T14:18:42.015Z,48.17
2023-03-08T14:23:54.630Z,48.38
2023-03-08T14:29:22.892Z,48.14
2023-03-08T14:34:34.208Z,48.16
2023-03-08T14:39:43.493Z,48.94
2023-03-08T14:44:58.100Z,49.12
2023-03-08T14:50:19.631Z,48.83
2023-03-08T14:55:29.143Z,49.64
2023-03-08T15:00:37.193Z,49.55
2023-03-08T15:05:46.004Z,49.11
2023-03-08T15:10:54.162Z,50.35
2023-03-08T15:16:02.367Z,50.39
2023-03-08T15:21:11.875Z,50.97
2023-03-08T15:26:23.641Z,51.14
2023-03-08T15:31:31.855Z,50.94
2023-03-08T15:36:39.715Z,50.56
2023-03-08T15:41:47.401Z,53.73
2023-03-08T15:46:55.292Z,55.06
2023-03-08T15:52:03.289Z,55.46
2023-03-08T15:57:10.913Z,55.64
2023-03-08T16:02:20.738Z,56.73
2023-03-08T16:07:28.448Z,57.86
2023-03-08T16:12:36.480Z,58.08
2023-03-08T16:17:44.597Z,58.55
2023-03-08T16:22:52.089Z,60.29
2023-03-08T16:27:59.362Z,61.32
2023-03-08T16:33:07.996Z,61.88
2023-03-08T16:38:15.346Z,64.14
2023-03-08T16:43:23.250Z,65.91
2023-03-08T16:48:31.684Z,66.87
2023-03-08T16:53:39.110Z,68.11
2023-03-08T16:58:46.393Z,69.12
2023-03-08T17:03:54.201Z,70.25
2023-03-08T17:09:01.707Z,71.10
2023-03-08T17:14:12.005Z,72.53
2023-03-08T17:19:21.743Z,73.32
2023-03-08T17:24:31.312Z,74.17
2023-03-08T17:29:38.698Z,75.20
2023-03-08T17:34:46.660Z,76.05
2023-03-08T17:39:54.399Z,76.02
2023-03-08T17:45:02.945Z,76.25
2023-03-08T17:50:14.383Z,76.65
2023-03-08T17:55:22.331Z,76.18
2023-03-08T18:00:30.073Z,75.98
2023-03-08T18:05:37.643Z,76.07
2023-03-08T18:10:45.249Z,76.53
2023-03-08T18:15:55.308Z,76.95
2023-03-08T18:21:13.193Z,77.00
2023-03-08T18:26:22.010Z,77.27
2023-03-08T18:31:31.197Z,77.70
2023-03-08T18:36:39.575Z,78.73
2023-03-08T18:41:47.278Z,78.82
2023-03-08T18:46:55.458Z,78.82
2023-03-08T18:52:03.164Z,78.71
2023-03-08T18:57:10.807Z,78.16
2023-03-08T19:02:18.772Z,78.37
2023-03-08T19:07:26.692Z,79.69
2023-03-08T19:12:37.774Z,79.66
2023-03-08T19:17:45.744Z,79.92
2023-03-08T19:22:52.958Z,80.39
2023-03-08T19:27:58.592Z,79.92
2023-03-08T19:33:06.724Z,79.20
2023-03-08T19:38:14.054Z,80.18
2023-03-08T19:43:21.347Z,80.09
2023-03-08T19:48:28.566Z,79.52
2023-03-08T19:53:36.092Z,79.46
2023-03-08T19:58:43.686Z,79.51
2023-03-08T20:03:51.491Z,80.30
2023-03-08T20:08:59.304Z,80.81
2023-03-08T20:14:08.617Z,80.28
2023-03-08T20:19:18.165Z,79.58
2023-03-08T20:24:25.851Z,79.40
2023-03-08T20:29:33.597Z,79.24
2023-03-08T20:34:41.210Z,80.14
2023-03-08T20:39:51.516Z,80.88
2023-03-08T20:44:58.849Z,80.60
2023-03-08T20:50:06.662Z,80.57
2023-03-08T20:55:14.277Z,80.98
2023-03-08T21:00:25.385Z,81.29
2023-03-08T21:05:36.173Z,81.45
2023-03-08T21:10:43.892Z,82.05
2023-03-08T21:15:52.505Z,82.55
2023-03-08T21:21:00.380Z,82.60
2023-03-08T21:26:08.588Z,82.86
2023-03-08T21:31:17.646Z,82.38
2023-03-08T21:36:26.172Z,82.16
2023-03-08T21:41:35.541Z,82.50
2023-03-08T21:46:44.005Z,83.22
2023-03-08T21:51:52.724Z,83.46
2023-03-08T21:57:00.564Z,83.74
2023-03-08T22:02:10.544Z,83.49
2023-03-08T22:07:17.862Z,82.38
2023-03-08T22:12:25.568Z,82.00
2023-03-08T22:17:33.281Z,82.95
2023-03-08T22:22:42.106Z,83.56
2023-03-08T22:27:49.549Z,84.44
2023-03-08T22:32:58.038Z,84.69
2023-03-08T22:38:05.142Z,85.04
2023-03-08T22:43:12.821Z,85.10
2023-03-08T22:48:20.164Z,85.84
2023-03-08T22:53:27.810Z,85.93
2023-03-08T22:58:34.986Z,86.48
2023-03-08T23:03:42.825Z,86.50
2023-03-08T23:08:51.078Z,86.69
2023-03-08T23:13:58.849Z,86.71
2023-03-08T23:19:06.622Z,86.99
2023-03-08T23:24:15.964Z,87.48
2023-03-08T23:29:24.656Z,87.90
2023-03-08T23:34:32.449Z,87.73
2023-03-08T23:39:41.331Z,87.53
2023-03-08T23:44:48.691Z,87.90
2023-03-08T23:49:56.272Z,87.98
2023-03-08T23:55:03.573Z,87.75
